createdAt,value
2018-09-24T00:01:48.057Z,75.01
2018-09-24T00:04:16.613Z,75.91
2018-09-24T00:06:45.154Z,75.49
2018-09-24T00:09:13.725Z,75.94
2018-09-24T00:11:42.299Z,75.94
2018-09-24T00:14:10.925Z,76.73
2018-09-24T00:16:39.472Z,76.34
2018-09-24T00:19:08.302Z,76.29
2018-09-24T00:21:36.866Z,76.45
2018-09-24T00:24:05.438Z,76.08
2018-09-24T00:26:34.004Z,76.37
2018-09-24T00:29:02.575Z,76.95
2018-09-24T00:31:31.119Z,77.33
2018-09-24T00:33:59.710Z,78.30
2018-09-24T00:36:28.268Z,79.34
2018-09-24T00:38:56.852Z,80.04
2018-09-24T00:41:25.409Z,79.44
2018-09-24T00:43:53.995Z,80.16
2018-09-24T00:46:22.525Z,79.41
2018-09-24T00:48:51.109Z,79.08
2018-09-24T00:51:19.661Z,79.32
2018-09-24T00:53:48.252Z,78.96
2018-09-24T00:56:16.802Z,78.49
2018-09-24T00:58:45.372Z,78.13
2018-09-24T01:01:13.928Z,78.78
2018-09-24T01:03:42.546Z,80.05
2018-09-24T01:06:11.094Z,80.10
2018-09-24T01:08:39.657Z,81.42
2018-09-24T01:11:08.204Z,81.14
2018-09-24T01:13:36.780Z,81.74
2018-09-24T01:16:05.356Z,82.10
2018-09-24T01:18:33.942Z,82.40
2018-09-24T01:21:02.488Z,82.44
2018-09-24T01:23:31.096Z,82.71
2018-09-24T01:25:59.731Z,82.87
2018-09-24T01:28:28.317Z,82.13
2018-09-24T01:30:56.865Z,82.00
2018-09-24T01:33:25.461Z,82.22
2018-09-24T01:35:53.976Z,82.60
2018-09-24T01:38:22.601Z,81.84
2018-09-24T01:40:51.152Z,81.67
2018-09-24T01:43:19.716Z,81.38
2018-09-24T01:45:48.290Z,82.76
2018-09-24T01:48:16.843Z,83.31
2018-09-24T01:50:45.424Z,83.13
2018-09-24T01:53:13.978Z,83.26
2018-09-24T01:55:43.262Z,84.12
2018-09-24T01:58:11.789Z,84.47
2018-09-24T02:00:40.373Z,84.50
2018-09-24T02:03:08.930Z,84.63
2018-09-24T02:05:37.510Z,83.96
2018-09-24T02:08:06.098Z,83.49
2018-09-24T02:10:34.668Z,82.78
2018-09-24T02:13:03.220Z,81.78
2018-09-24T02:15:33.065Z,81.93
2018-09-24T02:18:01.916Z,81.82
2018-09-24T02:20:30.508Z,82.49
2018-09-24T02:22:59.069Z,82.78
2018-09-24T02:25:27.689Z,82.97
2018-09-24T02:27:56.215Z,83.49
2018-09-24T02:30:24.809Z,83.52
2018-09-24T02:32:53.358Z,83.04
2018-09-24T02:35:21.990Z,82.35
2018-09-24T02:37:50.525Z,82.76
2018-09-24T02:40:22.905Z,81.78
2018-09-24T02:42:51.744Z,82.14
2018-09-24T02:45:20.776Z,81.32
2018-09-24T02:47:49.339Z,81.67
2018-09-24T02:50:17.916Z,80.51
2018-09-24T02:52:46.461Z,80.49
2018-09-24T02:55:17.772Z,80.09
2018-09-24T02:57:46.408Z,79.00
2018-09-24T03:00:20.056Z,78.35
2018-09-24T03:02:48.645Z,77.18
2018-09-24T03:05:17.237Z,77.47
2018-09-24T03:07:45.793Z,78.35
2018-09-24T03:10:14.382Z,78.17
2018-09-24T03:12:48.463Z,78.08
2018-09-24T03:15:17.054Z,78.64
2018-09-24T03:17:45.664Z,78.26
2018-09-24T03:20:14.316Z,77.94
2018-09-24T03:22:42.893Z,77.94
2018-09-24T03:25:17.261Z,78.00
2018-09-24T03:27:46.144Z,77.66
2018-09-24T03:30:14.834Z,78.03
2018-09-24T03:32:43.468Z,77.52
2018-09-24T03:35:12.069Z,78.02
2018-09-24T03:37:40.726Z,78.30
2018-09-24T03:40:09.317Z,78.49
2018-09-24T03:42:37.871Z,78.54
2018-09-24T03:45:06.529Z,78.31
2018-09-24T03:47:35.069Z,78.12
2018-09-24T03:50:03.688Z,78.37
2018-09-24T03:52:32.241Z,77.94
2018-09-24T03:55:00.789Z,77.77
2018-09-24T03:57:29.362Z,77.72
2018-09-24T03:59:57.897Z,78.09
2018-09-24T04:02:26.450Z,78.59
2018-09-24T04:05:00.148Z,78.35
2018-09-24T04:07:34.060Z,78.32
2018-09-24T04:10:07.884Z,78.77
2018-09-24T04:12:41.676Z,78.97
2018-09-24T04:15:15.578Z,78.75
2018-09-24T04:17:49.477Z,78.99
2018-09-24T04:20:23.324Z,78.88
2018-09-24T04:22:57.013Z,79.41
2018-09-24T04:25:30.858Z,79.39
2018-09-24T04:28:04.561Z,80.25
2018-09-24T04:30:38.489Z,80.07
2018-09-24T04:33:12.337Z,79.92
2018-09-24T04:35:46.202Z,80.05
2018-09-24T04:38:20.097Z,79.97
2018-09-24T04:40:53.952Z,80.37
2018-09-24T04:43:27.868Z,80.51
2018-09-24T04:46:01.698Z,80.91
2018-09-24T04:48:35.409Z,80.19
2018-09-24T04:51:09.187Z,80.68
2018-09-24T04:53:42.912Z,81.00
2018-09-24T04:56:16.693Z,81.47
2018-09-24T04:58:50.608Z,81.34
2018-09-24T05:01:24.400Z,81.74
2018-09-24T05:03:58.309Z,81.44
2018-09-24T05:06:32.100Z,81.30
2018-09-24T05:09:05.776Z,80.74
2018-09-24T05:11:39.632Z,81.34
2018-09-24T05:14:13.533Z,80.89
2018-09-24T05:16:47.344Z,80.84
2018-09-24T05:19:21.342Z,80.27
2018-09-24T05:21:55.178Z,80.59
2018-09-24T05:24:28.840Z,80.75
2018-09-24T05:27:02.652Z,80.06
2018-09-24T05:29:36.325Z,82.00
2018-09-24T05:32:10.177Z,80.32
2018-09-24T05:34:44.856Z,79.72
2018-09-24T05:37:18.664Z,79.35
2018-09-24T05:39:52.518Z,79.72
2018-09-24T05:42:26.218Z,79.44
2018-09-24T05:45:00.001Z,79.14
2018-09-24T05:47:33.824Z,79.17
2018-09-24T05:50:08.319Z,79.58
2018-09-24T05:52:42.327Z,79.05
2018-09-24T05:55:16.236Z,78.70
2018-09-24T05:57:50.136Z,79.28
2018-09-24T06:00:24.117Z,79.42
2018-09-24T06:02:58.416Z,79.13
2018-09-24T06:05:32.693Z,79.03
2018-09-24T06:08:06.575Z,78.69
2018-09-24T06:10:40.490Z,78.21
2018-09-24T06:13:14.414Z,77.71
2018-09-24T06:15:48.288Z,76.85
2018-09-24T06:18:22.104Z,76.73
2018-09-24T06:20:55.917Z,75.24
2018-09-24T06:23:29.797Z,74.38
2018-09-24T06:26:03.702Z,73.55
2018-09-24T06:28:37.549Z,73.13
2018-09-24T06:31:11.465Z,70.68
2018-09-24T06:33:45.460Z,64.44
2018-09-24T06:36:19.350Z,58.81
2018-09-24T06:38:53.177Z,55.45
2018-09-24T06:41:27.007Z,50.75
2018-09-24T06:44:00.881Z,49.47
2018-09-24T06:46:34.757Z,47.77
2018-09-24T06:49:08.815Z,46.21
2018-09-24T06:51:42.667Z,45.61
2018-09-24T06:54:16.481Z,42.07
2018-09-24T06:56:50.213Z,41.28
2018-09-24T06:59:24.020Z,41.70
2018-09-24T07:01:57.824Z,41.94
2018-09-24T07:04:32.126Z,43.64
2018-09-24T07:07:05.973Z,44.25
2018-09-24T07:09:39.890Z,39.14
2018-09-24T07:12:13.647Z,36.71
2018-09-24T07:14:47.596Z,34.43
2018-09-24T07:17:21.308Z,35.03
2018-09-24T07:19:55.027Z,34.43
2018-09-24T07:22:28.870Z,33.03
2018-09-24T07:25:02.662Z,32.65
2018-09-24T07:27:36.464Z,33.17
2018-09-24T07:30:10.426Z,34.33
2018-09-24T07:32:44.186Z,36.57
2018-09-24T07:35:17.933Z,34.76
2018-09-24T07:37:51.826Z,33.50
2018-09-24T07:40:25.873Z,35.34
2018-09-24T07:42:59.692Z,36.71
2018-09-24T07:45:33.482Z,38.68
2018-09-24T07:48:07.362Z,33.83
2018-09-24T07:50:41.726Z,32.16
2018-09-24T07:53:15.561Z,35.42
2018-09-24T07:55:49.489Z,43.17
2018-09-24T07:58:23.701Z,48.81
2018-09-24T08:00:57.722Z,50.96
2018-09-24T08:03:32.184Z,52.87
2018-09-24T08:06:19.971Z,55.01
2018-09-24T08:09:11.139Z,55.70
2018-09-24T08:11:46.628Z,56.89
2018-09-24T08:14:41.327Z,57.74
2018-09-24T08:17:29.355Z,57.51
2018-09-24T08:20:04.544Z,57.73
2018-09-24T08:22:39.459Z,58.55
2018-09-24T08:25:14.211Z,58.71
2018-09-24T08:27:49.805Z,59.21
2018-09-24T08:30:24.208Z,57.51
2018-09-24T08:32:58.795Z,57.71
2018-09-24T08:35:32.909Z,58.62
2018-09-24T08:38:06.929Z,58.35
2018-09-24T08:40:40.636Z,59.10
2018-09-24T08:43:15.760Z,57.90
2018-09-24T08:45:50.461Z,58.20
2018-09-24T08:48:24.264Z,57.28
2018-09-24T08:50:58.177Z,57.80
2018-09-24T08:53:32.201Z,57.78
2018-09-24T08:56:06.084Z,56.42
2018-09-24T08:58:39.801Z,46.01
2018-09-24T09:01:13.705Z,42.01
2018-09-24T09:03:47.620Z,42.05
2018-09-24T09:06:28.577Z,40.09
2018-09-24T09:09:02.256Z,41.03
2018-09-24T09:11:36.064Z,44.17
2018-09-24T09:14:09.924Z,47.07
2018-09-24T09:16:43.692Z,48.53
2018-09-24T09:19:17.408Z,48.79
2018-09-24T09:21:51.302Z,43.08
2018-09-24T09:24:25.136Z,37.98
2018-09-24T09:26:58.977Z,36.91
2018-09-24T09:29:32.967Z,38.60
2018-09-24T09:32:06.801Z,38.81
2018-09-24T09:34:40.697Z,40.69
2018-09-24T09:37:14.483Z,45.08
2018-09-24T09:39:48.260Z,46.79
2018-09-24T09:42:22.028Z,48.55
2018-09-24T09:44:55.855Z,48.52
2018-09-24T09:47:29.841Z,49.45
2018-09-24T09:50:03.709Z,47.37
2018-09-24T09:52:37.570Z,49.21
2018-09-24T09:55:11.377Z,48.82
2018-09-24T09:57:45.174Z,46.82
2018-09-24T10:00:19.037Z,48.78
2018-09-24T10:02:52.580Z,49.70
2018-09-24T10:05:26.365Z,47.50
2018-09-24T10:08:00.078Z,44.15
2018-09-24T10:10:33.858Z,39.36
2018-09-24T10:13:07.557Z,34.54
2018-09-24T10:15:41.509Z,32.45
2018-09-24T10:18:15.312Z,33.88
2018-09-24T10:20:49.159Z,36.23
2018-09-24T10:23:22.960Z,33.15
2018-09-24T10:25:56.827Z,28.50
2018-09-24T10:28:30.672Z,32.33
2018-09-24T10:31:04.399Z,30.77
2018-09-24T10:33:38.449Z,28.91
2018-09-24T10:36:12.393Z,28.12
2018-09-24T10:38:46.180Z,26.91
2018-09-24T10:41:20.033Z,28.21
2018-09-24T10:43:53.713Z,32.11
2018-09-24T10:46:27.483Z,31.11
2018-09-24T10:49:01.331Z,29.92
2018-09-24T10:51:35.224Z,28.32
2018-09-24T10:54:08.900Z,26.97
2018-09-24T10:56:42.777Z,29.41
2018-09-24T10:59:16.821Z,30.70
2018-09-24T11:01:50.572Z,31.74
2018-09-24T11:04:24.357Z,30.32
2018-09-24T11:06:58.110Z,27.31
2018-09-24T11:09:31.869Z,27.61
2018-09-24T11:12:05.668Z,27.96
2018-09-24T11:14:39.618Z,30.48
2018-09-24T11:17:13.678Z,35.08
2018-09-24T11:19:47.336Z,34.64
2018-09-24T11:22:21.246Z,35.00
2018-09-24T11:24:55.109Z,37.92
2018-09-24T11:27:28.949Z,36.70
2018-09-24T11:30:04.579Z,35.18
2018-09-24T11:32:39.236Z,33.62
2018-09-24T11:35:13.088Z,33.78
2018-09-24T11:37:46.957Z,33.15
2018-09-24T11:40:22.970Z,34.88
2018-09-24T11:42:56.732Z,39.89
2018-09-24T11:45:30.597Z,44.50
2018-09-24T11:48:04.583Z,42.20
2018-09-24T11:50:38.448Z,40.18
2018-09-24T11:53:12.357Z,40.52
2018-09-24T11:55:46.168Z,38.60
2018-09-24T11:58:20.297Z,35.15
2018-09-24T12:00:54.053Z,33.59
2018-09-24T12:03:28.000Z,34.23
2018-09-24T12:06:01.762Z,36.31
2018-09-24T12:08:35.605Z,36.81
2018-09-24T12:11:09.354Z,43.23
2018-09-24T12:13:43.165Z,40.03
2018-09-24T12:16:16.962Z,38.35
2018-09-24T12:18:50.774Z,39.12
2018-09-24T12:21:24.564Z,41.70
2018-09-24T12:23:58.530Z,40.36
2018-09-24T12:26:32.433Z,36.60
2018-09-24T12:29:06.274Z,36.42
2018-09-24T12:31:40.066Z,34.73
2018-09-24T12:34:13.754Z,33.99
2018-09-24T12:36:47.576Z,33.78
2018-09-24T12:39:21.609Z,32.06
2018-09-24T12:41:55.490Z,32.26
2018-09-24T12:44:29.349Z,32.63
2018-09-24T12:47:03.125Z,33.03
2018-09-24T12:49:37.034Z,33.65
2018-09-24T12:52:10.906Z,34.42
2018-09-24T12:54:44.850Z,32.42
2018-09-24T12:57:18.583Z,32.53
2018-09-24T12:59:52.456Z,31.63
2018-09-24T13:02:26.454Z,32.82
2018-09-24T13:05:00.374Z,33.18
2018-09-24T13:07:34.233Z,33.39
2018-09-24T13:10:08.197Z,33.74
2018-09-24T13:12:42.047Z,34.22
2018-09-24T13:15:15.829Z,34.67
2018-09-24T13:17:49.484Z,34.53
2018-09-24T13:20:23.452Z,35.06
2018-09-24T13:22:57.385Z,36.26
2018-09-24T13:25:31.205Z,34.64
2018-09-24T13:28:04.972Z,33.62
2018-09-24T13:30:38.772Z,32.18
2018-09-24T13:33:12.732Z,32.33
2018-09-24T13:35:46.552Z,33.47
2018-09-24T13:38:20.342Z,34.37
2018-09-24T13:40:53.964Z,33.92
2018-09-24T13:43:27.733Z,33.41
2018-09-24T13:46:01.683Z,33.54
2018-09-24T13:48:35.562Z,34.49
2018-09-24T13:51:09.633Z,32.76
2018-09-24T13:53:43.569Z,32.82
2018-09-24T13:56:17.537Z,32.06
2018-09-24T13:58:51.505Z,32.10
2018-09-24T14:01:25.462Z,32.66
2018-09-24T14:03:59.303Z,31.48
2018-09-24T14:06:34.214Z,31.07
2018-09-24T14:09:07.930Z,30.12
2018-09-24T14:11:41.674Z,30.92
2018-09-24T14:14:15.559Z,31.74
2018-09-24T14:16:50.208Z,34.19
2018-09-24T14:19:24.084Z,35.75
2018-09-24T14:21:57.856Z,35.82
2018-09-24T14:24:31.802Z,35.83
2018-09-24T14:27:07.073Z,35.09
2018-09-24T14:29:40.860Z,33.44
2018-09-24T14:32:14.804Z,32.51
2018-09-24T14:34:48.978Z,33.18
2018-09-24T14:37:26.045Z,33.30
2018-09-24T14:39:59.861Z,34.88
2018-09-24T14:42:34.057Z,36.33
2018-09-24T14:45:07.937Z,36.14
2018-09-24T14:47:42.865Z,38.74
2018-09-24T14:50:16.625Z,38.00
2018-09-24T14:52:51.621Z,39.89
2018-09-24T14:55:25.997Z,40.23
2018-09-24T14:58:00.146Z,40.62
2018-09-24T15:00:34.326Z,41.61
2018-09-24T15:03:08.503Z,42.34
2018-09-24T15:05:42.623Z,42.86
2018-09-24T15:08:16.461Z,42.73
2018-09-24T15:10:50.316Z,41.39
2018-09-24T15:13:24.188Z,40.15
2018-09-24T15:15:58.107Z,38.82
2018-09-24T15:18:31.972Z,37.26
2018-09-24T15:21:05.952Z,35.60
2018-09-24T15:23:39.762Z,34.13
2018-09-24T15:26:13.643Z,33.70
2018-09-24T15:28:47.645Z,33.80
2018-09-24T15:31:21.433Z,33.98
2018-09-24T15:33:55.248Z,34.24
2018-09-24T15:36:29.194Z,33.84
2018-09-24T15:39:03.004Z,33.89
2018-09-24T15:41:36.985Z,34.01
2018-09-24T15:44:10.848Z,32.90
2018-09-24T15:46:44.693Z,33.69
2018-09-24T15:49:18.582Z,34.84
2018-09-24T15:51:52.370Z,34.93
2018-09-24T15:54:26.327Z,35.54
2018-09-24T15:57:00.045Z,35.73
2018-09-24T15:59:33.709Z,35.00
2018-09-24T16:02:07.646Z,35.54
2018-09-24T16:04:41.356Z,36.71
2018-09-24T16:07:15.153Z,37.21
2018-09-24T16:09:48.909Z,38.40
2018-09-24T16:12:22.845Z,38.52
2018-09-24T16:14:56.677Z,38.13
2018-09-24T16:17:30.586Z,37.90
2018-09-24T16:20:04.466Z,37.64
2018-09-24T16:22:38.284Z,38.44
2018-09-24T16:25:12.030Z,38.39
2018-09-24T16:27:46.022Z,39.28
2018-09-24T16:30:21.016Z,39.05
2018-09-24T16:32:54.715Z,39.94
2018-09-24T16:35:28.930Z,40.62
2018-09-24T16:38:02.735Z,41.22
2018-09-24T16:40:36.507Z,41.65
2018-09-24T16:43:10.361Z,42.16
2018-09-24T16:45:44.065Z,43.45
2018-09-24T16:48:17.887Z,43.29
2018-09-24T16:50:51.669Z,44.72
2018-09-24T16:53:25.465Z,46.81
2018-09-24T16:55:59.348Z,47.84
2018-09-24T16:58:41.240Z,49.37
2018-09-24T17:01:15.075Z,49.95
2018-09-24T17:03:49.367Z,50.43
2018-09-24T17:06:23.730Z,51.22
2018-09-24T17:08:57.575Z,51.46
2018-09-24T17:11:32.860Z,51.75
2018-09-24T17:14:06.720Z,52.70
2018-09-24T17:16:40.656Z,52.95
2018-09-24T17:19:15.614Z,53.15
2018-09-24T17:21:49.450Z,53.22
2018-09-24T17:24:23.376Z,54.11
2018-09-24T17:27:00.713Z,54.43
2018-09-24T17:29:34.465Z,54.67
2018-09-24T17:32:09.177Z,55.21
2018-09-24T17:34:43.082Z,55.22
2018-09-24T17:37:17.298Z,55.39
2018-09-24T17:39:51.313Z,55.70
2018-09-24T17:42:25.059Z,55.30
2018-09-24T17:44:59.412Z,55.65
2018-09-24T17:47:41.548Z,55.33
2018-09-24T17:52:55.580Z,56.34
2018-09-24T17:55:29.516Z,56.32
2018-09-24T17:58:03.444Z,56.82
2018-09-24T18:00:37.297Z,56.26
2018-09-24T18:03:11.492Z,56.61
2018-09-24T18:05:46.469Z,56.20
2018-09-24T18:08:20.710Z,56.03
2018-09-24T18:10:54.807Z,56.32
2018-09-24T18:13:28.758Z,56.48
2018-09-24T18:16:08.699Z,57.62
2018-09-24T18:18:42.673Z,58.24
2018-09-24T18:21:17.141Z,58.35
2018-09-24T18:23:51.222Z,59.30
2018-09-24T18:26:25.876Z,59.35
2018-09-24T18:29:00.085Z,59.88
2018-09-24T18:31:34.010Z,59.80
2018-09-24T18:34:07.939Z,60.59
2018-09-24T18:36:41.868Z,60.83
2018-09-24T18:39:15.846Z,60.70
2018-09-24T18:41:49.657Z,61.09
2018-09-24T18:44:23.382Z,61.56
2018-09-24T18:46:57.420Z,62.10
2018-09-24T18:49:31.162Z,62.11
2018-09-24T18:52:04.935Z,61.00
2018-09-24T18:54:38.689Z,61.70
2018-09-24T18:57:12.536Z,61.88
2018-09-24T18:59:46.401Z,62.54
2018-09-24T19:02:20.167Z,62.90
2018-09-24T19:04:53.963Z,62.68
2018-09-24T19:07:27.607Z,62.29
2018-09-24T19:10:01.498Z,62.04
2018-09-24T19:12:36.992Z,61.98
2018-09-24T19:15:10.828Z,62.27
2018-09-24T19:17:44.725Z,62.43
2018-09-24T19:20:18.488Z,62.33
2018-09-24T19:22:52.245Z,62.21
2018-09-24T19:25:25.977Z,62.47
2018-09-24T19:27:59.848Z,62.54
2018-09-24T19:30:33.655Z,62.87
2018-09-24T19:33:07.357Z,62.41
2018-09-24T19:35:41.021Z,62.23
2018-09-24T19:38:14.777Z,61.54
2018-09-24T19:40:48.674Z,61.86
2018-09-24T19:43:22.508Z,61.94
2018-09-24T19:45:56.360Z,61.01
2018-09-24T19:48:30.138Z,61.18
2018-09-24T19:51:04.021Z,61.38
2018-09-24T19:53:38.468Z,61.14
2018-09-24T19:56:12.331Z,61.26
2018-09-24T19:58:47.071Z,61.19
2018-09-24T20:01:20.914Z,61.89
2018-09-24T20:03:54.693Z,61.79
2018-09-24T20:06:28.483Z,62.29
2018-09-24T20:09:02.230Z,62.29
2018-09-24T20:11:36.125Z,61.93
2018-09-24T20:14:10.078Z,61.77
2018-09-24T20:16:43.978Z,61.08
2018-09-24T20:19:17.763Z,61.25
2018-09-24T20:21:51.485Z,61.60
2018-09-24T20:24:25.371Z,62.71
2018-09-24T20:26:59.164Z,62.53
2018-09-24T20:29:32.969Z,62.83
2018-09-24T20:32:06.547Z,63.09
2018-09-24T20:34:40.665Z,62.47
2018-09-24T20:37:14.333Z,63.06
2018-09-24T20:39:48.183Z,62.65
2018-09-24T20:42:21.870Z,63.22
2018-09-24T20:44:55.692Z,62.76
2018-09-24T20:47:29.608Z,62.76
2018-09-24T20:50:03.225Z,62.67
2018-09-24T20:52:36.994Z,62.98
2018-09-24T20:55:13.128Z,63.64
2018-09-24T20:57:46.846Z,63.05
2018-09-24T21:00:20.787Z,63.46
2018-09-24T21:02:54.433Z,63.97
2018-09-24T21:05:28.204Z,63.80
2018-09-24T21:08:02.111Z,64.04
2018-09-24T21:10:35.830Z,63.80
2018-09-24T21:13:09.647Z,63.36
2018-09-24T21:15:43.421Z,62.85
2018-09-24T21:18:17.199Z,63.09
2018-09-24T21:20:50.949Z,63.24
2018-09-24T21:23:24.568Z,63.28
2018-09-24T21:25:58.387Z,62.95
2018-09-24T21:28:32.071Z,65.29
2018-09-24T21:31:05.908Z,64.77
2018-09-24T21:33:40.061Z,66.29
2018-09-24T21:36:13.806Z,66.07
2018-09-24T21:38:48.570Z,66.01
2018-09-24T21:41:22.504Z,66.41
2018-09-24T21:43:56.426Z,66.66
2018-09-24T21:46:30.263Z,66.43
2018-09-24T21:49:04.011Z,66.38
2018-09-24T21:51:37.881Z,66.38
2018-09-24T21:54:11.733Z,66.06
2018-09-24T21:56:45.566Z,66.04
2018-09-24T21:59:19.360Z,65.97
2018-09-24T22:01:53.025Z,66.12
2018-09-24T22:04:26.710Z,65.91
2018-09-24T22:07:00.436Z,65.78
2018-09-24T22:09:34.172Z,66.02
2018-09-24T22:12:08.031Z,66.38
2018-09-24T22:14:41.937Z,66.36
2018-09-24T22:17:15.786Z,66.31
2018-09-24T22:19:49.707Z,66.79
2018-09-24T22:22:23.459Z,67.29
2018-09-24T22:24:57.349Z,67.84
2018-09-24T22:27:31.192Z,68.64
2018-09-24T22:30:04.996Z,69.24
2018-09-24T22:32:38.726Z,68.94
2018-09-24T22:35:12.550Z,69.30
2018-09-24T22:37:46.336Z,69.13
2018-09-24T22:40:20.045Z,69.27
2018-09-24T22:42:53.853Z,69.40
2018-09-24T22:45:27.729Z,69.95
2018-09-24T22:48:02.493Z,70.32
2018-09-24T22:50:36.281Z,70.81
2018-09-24T22:53:10.023Z,71.13
2018-09-24T22:55:43.861Z,71.32
2018-09-24T22:58:17.855Z,71.82
2018-09-24T23:00:51.661Z,73.33
2018-09-24T23:03:26.240Z,70.77
2018-09-24T23:06:00.789Z,69.79
2018-09-24T23:08:34.803Z,67.56
2018-09-24T23:11:08.673Z,66.57
2018-09-24T23:13:42.449Z,66.22
2018-09-24T23:16:17.066Z,66.82
2018-09-24T23:18:50.853Z,67.00
2018-09-24T23:21:24.669Z,67.16
2018-09-24T23:23:58.927Z,67.41
2018-09-24T23:26:32.961Z,67.74
2018-09-24T23:29:06.819Z,68.48
2018-09-24T23:31:40.730Z,68.34
2018-09-24T23:34:14.448Z,68.91
2018-09-24T23:36:49.064Z,69.01
2018-09-24T23:39:22.958Z,68.14
2018-09-24T23:41:57.447Z,67.92
2018-09-24T23:44:31.511Z,68.95
2018-09-24T23:47:05.201Z,68.80
2018-09-24T23:49:39.180Z,69.39
2018-09-24T23:52:12.997Z,69.89
2018-09-24T23:54:46.845Z,70.39
2018-09-24T23:57:20.737Z,71.93
2018-09-24T23:59:54.569Z,73.05
